CDT,Max TemperatureF,Mean TemperatureF,Min TemperatureF,Max Dew PointF,MeanDew PointF,Min DewpointF,Max Humidity, Mean Humidity, Min Humidity, Max Sea Level PressureIn, Mean Sea Level PressureIn, Min Sea Level PressureIn, Max VisibilityMiles, Mean VisibilityMiles, Min VisibilityMiles, Max Wind SpeedMPH, Mean Wind SpeedMPH, Max Gust SpeedMPH,PrecipitationIn, CloudCover, Events, WindDirDegrees
2012-9-1,84,68,53,63,52,43,72,53,38,30.12,29.93,29.73,10,10,10,24,12,33,0.00,2,Rain-Thunderstorm,153
2012-9-2,77,64,50,66,58,41,100,79,28,29.87,29.80,29.72,10,10,4,21,10,28,0.04,1,Rain-Thunderstorm,235
2012-9-3,80,65,50,52,41,36,82,49,20,29.91,29.88,29.86,10,10,10,17,9,23,0.00,0,Rain,255
2012-9-4,77,60,44,55,42,32,100,58,22,29.90,29.86,29.83,10,10,10,18,6,25,0.00,1,,296
2012-9-5,71,58,46,48,43,37,93,56,35,29.92,29.89,29.87,10,10,10,22,12,31,0.00,3,,285
2012-9-6,64,55,46,54,47,39,100,71,42,30.09,29.98,29.91,10,10,8,18,7,23,0.06,7,Rain,323
2012-9-7,66,56,46,46,42,39,93,65,37,30.18,30.13,30.05,10,10,10,16,9,22,0.00,5,,307
2012-9-8,68,54,39,43,35,27,76,47,21,30.21,30.11,29.97,10,10,10,26,15,33,0.00,0,,335
2012-9-9,73,54,35,41,35,30,93,53,20,30.20,30.06,29.83,10,10,5,22,8,30,0.00,0,,197
2012-9-10,86,66,46,45,41,37,76,47,18,29.82,29.65,29.57,10,10,10,21,11,26,0.00,2,,218
2012-9-11,69,58,48,43,31,23,59,34,19,29.94,29.79,29.62,10,10,10,26,15,34,0.00,2,Rain,296
2012-9-12,64,53,41,27,22,16,53,29,15,30.22,30.07,29.94,10,10,10,34,18,46,0.00,0,,280
2012-9-13,64,50,35,36,28,25,70,44,22,30.34,30.28,30.23,10,10,10,15,7,21,0.00,2,,202
2012-9-14,71,52,32,34,31,25,93,52,21,30.35,30.27,30.12,10,10,10,18,7,24,0.00,1,,207
2012-9-15,77,59,41,37,35,32,76,44,21,30.11,29.97,29.88,10,10,9,23,12,28,0.00,0,,247
2012-9-16,57,49,41,45,38,32,100,67,38,30.18,30.12,30.02,10,10,8,16,11,20,0.10,3,Rain,340
2012-9-17,53,42,32,41,32,23,100,74,33,30.17,30.12,30.07,10,10,10,18,7,23,0.00,3,,320
2012-9-18,69,53,37,39,33,27,81,49,26,30.06,29.83,29.60,10,10,9,25,10,32,0.00,4,,222
2012-9-19,64,56,48,41,33,23,71,45,27,29.96,29.78,29.60,10,10,10,39,25,52,0.00,1,,317
2012-9-20,60,50,41,36,31,27,70,46,31,29.98,29.93,29.87,10,10,10,21,12,28,0.00,4,,309
2012-9-21,59,44,30,39,28,16,100,54,25,30.21,29.99,29.89,10,10,10,37,12,47,0.00,2,,338
2012-9-22,51,38,26,28,22,16,93,56,26,30.36,30.30,30.22,10,10,10,13,10,17,0.00,0,,328
2012-9-23,62,42,21,25,19,16,80,43,18,30.31,30.22,30.01,10,10,10,16,6,20,0.00,0,,243
2012-9-24,68,54,35,41,32,23,87,40,26,30.00,29.89,29.84,10,10,10,21,13,25,0.00,0,,335
2012-9-25,59,41,23,36,30,23,100,69,36,30.05,30.00,29.95,10,10,7,13,5,,0.00,0,,1
2012-9-26,66,45,24,36,27,19,93,55,21,30.15,30.12,30.06,10,10,8,9,4,16,0.00,0,,193
2012-9-27,73,57,41,39,36,28,70,48,27,30.14,30.11,30.08,10,9,4,12,7,,0.00,2,,219
2012-9-28,77,58,39,41,36,32,87,51,25,30.17,30.12,30.08,10,8,1,9,5,,0.00,0,,225
2012-9-29,82,63,44,41,37,32,76,42,20,30.09,30.00,29.90,10,9,2,23,9,32,0.00,0,,196
2012-9-30,71,60,50,46,40,34,66,49,30,30.08,29.93,29.86,10,10,10,28,13,33,0.00,1,Rain,290